ADDS METAR Data INFO
IDs: Format: Raw Decoded Include TAF

Data at: 1011 UTC 12 Dec 2017

KVUJ 120945Z AUTO 23005KT 10SM CLR 03/00 A2980 RMK AO2 T00260001
KVUJ 120925Z AUTO 22005KT 10SM CLR 02/00 A2980 RMK AO2 T00240002
KVUJ 120905Z AUTO 22005KT 10SM CLR 03/00 A2981 RMK AO2 T00250002
KVUJ 120845Z AUTO 23005KT 10SM CLR 02/00 A2982 RMK AO2 T00200001
KVUJ 120825Z AUTO 22003KT 10SM CLR 00/M01 A2983 RMK AO2 T10021010
KVUJ 120805Z AUTO 00000KT 10SM CLR M01/M02 A2984 RMK AO2 T10081016
KVUJ 120745Z AUTO 00000KT 10SM CLR M01/M02 A2985 RMK AO2 T10081016
KVUJ 120725Z AUTO 00000KT 10SM CLR M01/M02 A2986 RMK AO2 T10071019
KVUJ 120705Z AUTO 00000KT 10SM CLR M01/M02 A2987 RMK AO2 T10101017
KVUJ 120645Z AUTO 00000KT 10SM CLR M01/M02 A2987 RMK AO2 T10071018
KVUJ 120625Z AUTO 00000KT 10SM CLR 00/M02 A2989 RMK AO2 T10041016
KVUJ 120605Z AUTO 00000KT 10SM CLR 00/M01 A2989 RMK AO2 T00001011
KVUJ 120545Z AUTO 00000KT 10SM CLR 00/M01 A2990 RMK AO2 T00001010
KVUJ 120525Z AUTO 00000KT 10SM CLR 02/M01 A2991 RMK AO2 T00151009
KVUJ 120505Z AUTO 21003KT 10SM CLR 03/M01 A2992 RMK AO2 T00261007
KVUJ 120445Z AUTO 21004KT 10SM CLR 03/M01 A2993 RMK AO2 T00281008
KVUJ 120425Z AUTO 00000KT 10SM CLR 01/M02 A2994 RMK AO2 T00051016
KVUJ 120405Z AUTO 00000KT 10SM CLR 00/M01 A2995 RMK AO2 T00021014
KVUJ 120345Z AUTO 00000KT 10SM CLR 01/M01 A2997 RMK AO2 T00091013
KVUJ 120325Z AUTO 00000KT 10SM CLR 01/M01 A2997 RMK AO2 T00061012
KVUJ 120305Z AUTO 00000KT 10SM CLR 01/M01 A2999 RMK AO2 T00071010
KVUJ 120245Z AUTO 00000KT 10SM CLR 00/M01 A2999 RMK AO2 T00031013
KVUJ 120225Z AUTO 22003KT 10SM CLR 02/M01 A3000 RMK AO2 T00241006
KVUJ 120205Z AUTO 00000KT 10SM CLR 01/M01 A3000 RMK AO2 T00111009
KVUJ 120145Z AUTO 00000KT 10SM CLR 01/M01 A3001 RMK AO2 T00141009
KVUJ 120125Z AUTO 00000KT 10SM CLR 01/M01 A3001 RMK AO2 T00111012
KVUJ 120105Z AUTO 22003KT 10SM CLR 01/M01 A3002 RMK AO2 T00141010
KVUJ 120045Z AUTO 00000KT 10SM CLR 01/M01 A3002 RMK AO2 T00091010
KVUJ 120025Z AUTO 00000KT 10SM CLR 02/M01 A3002 RMK AO2 T00181008
KVUJ 120005Z AUTO 00000KT 10SM CLR 03/M01 A3003 RMK AO2 T00261008
KVUJ 112345Z AUTO 00000KT 10SM CLR 03/00 A3003 RMK AO2 T00270000
KVUJ 112325Z AUTO 00000KT 10SM CLR 03/00 A3003 RMK AO2 T00301001
KVUJ 112305Z AUTO 00000KT 10SM CLR 05/00 A3004 RMK AO2 T00481003
KVUJ 112245Z AUTO 00000KT 10SM CLR 05/00 A3005 RMK AO2 T00501003
KVUJ 112225Z AUTO 00000KT 10SM CLR 08/M01 A3004 RMK AO2 T00771009
KVUJ 112205Z AUTO 21003KT 10SM CLR 09/M01 A3004 RMK AO2 T00861015
KVUJ 112145Z AUTO 18003KT 10SM CLR 10/M01 A3004 RMK AO2 T01001010
KVUJ 112125Z AUTO 21005KT 10SM CLR 11/M01 A3003 RMK AO2 T01111011
KVUJ 112105Z AUTO 19004KT 10SM CLR 12/M01 A3004 RMK AO2 T01181010
KVUJ 112045Z AUTO 17005KT 10SM CLR 12/M01 A3005 RMK AO2 T01231011
KVUJ 112025Z AUTO 18007KT 10SM CLR 12/M01 A3005 RMK AO2 T01231014
KVUJ 112005Z AUTO 21004KT 10SM CLR 12/M02 A3006 RMK AO2 T01211017
KVUJ 111945Z AUTO 21006KT 10SM CLR 12/M01 A3007 RMK AO2 T01201013
KVUJ 111925Z AUTO 21005KT 10SM CLR 12/M01 A3007 RMK AO2 T01201014
KVUJ 111905Z AUTO 19006KT 10SM CLR 12/M02 A3008 RMK AO2 T01181020
KVUJ 111845Z AUTO 20006KT 10SM CLR 12/M03 A3009 RMK AO2 T01151027
KVUJ 111825Z AUTO 16007KT 10SM CLR 11/M03 A3010 RMK AO2 T01121026
KVUJ 111805Z AUTO 19006KT 10SM CLR 11/M02 A3011 RMK AO2 T01121020
KVUJ 111745Z AUTO 00000KT 10SM CLR 10/M02 A3012 RMK AO2 T01031024
KVUJ 111725Z AUTO 23003KT 10SM CLR 10/M02 A3013 RMK AO2 T01031025
KVUJ 111705Z AUTO 20006KT 10SM CLR 10/M02 A3014 RMK AO2 T00971024
KVUJ 111645Z AUTO 22006KT 10SM CLR 09/M02 A3015 RMK AO2 T00921022
KVUJ 111625Z AUTO 00000KT 10SM CLR 08/M02 A3017 RMK AO2 T00831023
KVUJ 111605Z AUTO 00000KT 10SM CLR 07/M02 A3018 RMK AO2 T00721016
KVUJ 111545Z AUTO 20003KT 10SM CLR 07/M01 A3019 RMK AO2 T00651014
KVUJ 111525Z AUTO 00000KT 10SM CLR 05/M01 A3019 RMK AO2 T00481015
KVUJ 111505Z AUTO 20004KT 10SM CLR 04/M01 A3020 RMK AO2 T00361012
KVUJ 111445Z AUTO 18003KT 10SM CLR 03/M01 A3020 RMK AO2 T00301012
KVUJ 111425Z AUTO 00000KT 10SM CLR 02/M01 A3020 RMK AO2 T00161010
KVUJ 111405Z AUTO 00000KT 10SM CLR 00/M02 A3019 RMK AO2 T10011020
KVUJ 111345Z AUTO 00000KT 10SM CLR M02/M03 A3019 RMK AO2 T10171026
KVUJ 111325Z AUTO 00000KT 10SM CLR M03/M04 A3019 RMK AO2 T10341044
KVUJ 111305Z AUTO 10SM CLR M05/M06 A3018 RMK AO2 T10481056
KVUJ 111245Z AUTO 10SM CLR M05/M06 A3018 RMK AO2 T10521061
KVUJ 111225Z AUTO 00000KT 10SM CLR M06/M07 A3018 RMK AO2 T10581069
KVUJ 111205Z AUTO 00000KT 10SM CLR M05/M06 A3017 RMK AO2 T10521060
KVUJ 111145Z AUTO 00000KT 10SM CLR M05/M06 A3017 RMK AO2 T10491058
KVUJ 111125Z AUTO 00000KT 10SM CLR M05/M06 A3017 RMK AO2 T10541065
KVUJ 111105Z AUTO 00000KT 10SM CLR M05/M06 A3017 RMK AO2 T10551060
KVUJ 111045Z AUTO 00000KT 10SM CLR M05/M06 A3017 RMK AO2 T10531062
KVUJ 111025Z AUTO 00000KT 10SM CLR M05/M06 A3017 RMK AO2 T10471056
KVUJ 111005Z AUTO 00000KT 10SM CLR M04/M05 A3015 RMK AO2 T10401049
KVUJ 110945Z AUTO 00000KT 10SM CLR M04/M05 A3016 RMK AO2 T10451053
KVUJ 110925Z AUTO 00000KT 10SM CLR M04/M05 A3016 RMK AO2 T10421049
KVUJ 110905Z AUTO 00000KT 10SM CLR M04/M05 A3016 RMK AO2 T10441053
KVUJ 110845Z AUTO 00000KT 10SM CLR M05/M06 A3017 RMK AO2 T10491059
KVUJ 110825Z AUTO 00000KT 10SM CLR M04/M05 A3017 RMK AO2 T10411048
KVUJ 110805Z AUTO 00000KT 10SM CLR M05/M05 A3017 RMK AO2 T10471055
KVUJ 110745Z AUTO 00000KT 10SM CLR M04/M05 A3017 RMK AO2 T10431050
KVUJ 110725Z AUTO 00000KT 10SM CLR M04/M05 A3017 RMK AO2 T10421051
KVUJ 110705Z AUTO 00000KT 10SM CLR M04/M05 A3018 RMK AO2 T10411051
KVUJ 110645Z AUTO 00000KT 10SM CLR M04/M05 A3019 RMK AO2 T10401049
KVUJ 110625Z AUTO 00000KT 10SM CLR M04/M04 A3019 RMK AO2 T10361043
KVUJ 110605Z AUTO 00000KT 10SM CLR M04/M05 A3019 RMK AO2 T10371046
KVUJ 110545Z AUTO 00000KT 10SM CLR M03/M04 A3019 RMK AO2 T10351044
KVUJ 110525Z AUTO 00000KT 10SM CLR M04/M04 A3019 RMK AO2 T10371045
KVUJ 110505Z AUTO 00000KT 10SM CLR M04/M04 A3019 RMK AO2 T10361043
KVUJ 110445Z AUTO 00000KT 10SM CLR M03/M04 A3019 RMK AO2 T10301044
KVUJ 110425Z AUTO 00000KT 10SM CLR M03/M04 A3019 RMK AO2 T10301039
KVUJ 110405Z AUTO 00000KT 10SM CLR M04/M05 A3019 RMK AO2 T10371053
KVUJ 110345Z AUTO 00000KT 10SM CLR M02/M04 A3019 RMK AO2 T10221040
KVUJ 110325Z AUTO 00000KT 10SM CLR M03/M04 A3018 RMK AO2 T10281038
KVUJ 110305Z AUTO 00000KT 10SM CLR M03/M04 A3019 RMK AO2 T10291040
KVUJ 110245Z AUTO 00000KT 10SM CLR M03/M04 A3019 RMK AO2 T10291041
KVUJ 110225Z AUTO 00000KT 10SM CLR M02/M04 A3019 RMK AO2 T10251040
KVUJ 110205Z AUTO 00000KT 10SM CLR M02/M04 A3019 RMK AO2 T10251038
KVUJ 110145Z AUTO 00000KT 10SM CLR M02/M04 A3019 RMK AO2 T10231038
KVUJ 110125Z AUTO 00000KT 10SM CLR M02/M04 A3019 RMK AO2 T10251036
KVUJ 110105Z AUTO 00000KT 10SM CLR M02/M04 A3019 RMK AO2 T10211042
KVUJ 110045Z AUTO 00000KT 10SM CLR M01/M04 A3019 RMK AO2 T10151037
KVUJ 110025Z AUTO 00000KT 10SM CLR M02/M04 A3019 RMK AO2 T10241040
KVUJ 110005Z AUTO 00000KT 10SM CLR M01/M03 A3019 RMK AO2 T10121035
KVUJ 102345Z AUTO 00000KT 10SM CLR M01/M03 A3019 RMK AO2 T10071034
KVUJ 102325Z AUTO 00000KT 10SM CLR 00/M02 A3018 RMK AO2 T10021025
KVUJ 102305Z AUTO 00000KT 10SM CLR 00/M03 A3019 RMK AO2 T00011033
KVUJ 102245Z AUTO 00000KT 10SM CLR 01/M03 A3019 RMK AO2 T00111035
KVUJ 102225Z AUTO 00000KT 10SM CLR 03/M04 A3018 RMK AO2 T00341040